Time;durP1;ratioP1;P1;durP2;ratioP2;P2;SDS_P1;SDS_P2;PMS_P1;PMS_P2;Temp;Humidity;BMP_temperature;BMP_pressure;BME280_temperature;BME280_humidity;BME280_pressure;Samples;Min_cycle;Max_cycle;Signal;HPM_P1;HPM_P2
2021/12/31 00:00:46;;;;;;;24.55;8.48;;;;;;;3.31;100.00;95547.44;5067382;28;20036;-62
2021/12/31 00:03:14;;;;;;;19.50;10.35;;;;;;;3.22;100.00;95542.34;5069021;28;20044;-62
2021/12/31 00:05:41;;;;;;;20.67;9.73;;;;;;;3.21;100.00;95551.03;5067074;28;20155;-63
2021/12/31 00:08:08;;;;;;;14.60;7.10;;;;;;;3.22;100.00;95550.06;5065653;28;20406;-62
2021/12/31 00:10:35;;;;;;;16.20;7.50;;;;;;;3.29;100.00;95559.69;5070316;28;20128;-63
2021/12/31 00:13:02;;;;;;;16.05;8.10;;;;;;;3.28;100.00;95542.63;5074052;28;20048;-63
2021/12/31 00:15:29;;;;;;;17.77;7.53;;;;;;;3.31;100.00;95544.88;5072992;28;20479;-62
2021/12/31 00:17:56;;;;;;;11.73;6.18;;;;;;;3.41;100.00;95548.06;5075869;28;20036;-62
2021/12/31 00:20:25;;;;;;;12.35;6.18;;;;;;;3.49;100.00;95560.88;5072228;28;20059;-62
2021/12/31 00:25:22;;;;;;;10.70;5.85;;;;;;;3.47;100.00;95562.81;5074141;28;20424;-63
2021/12/31 00:27:49;;;;;;;10.05;6.30;;;;;;;3.46;100.00;95556.09;5072608;28;20048;-63
2021/12/31 00:30:17;;;;;;;14.13;7.28;;;;;;;3.40;100.00;95567.03;5064169;28;20028;-63
2021/12/31 00:32:44;;;;;;;15.35;6.53;;;;;;;3.38;100.00;95559.47;5072877;28;20414;-63
2021/12/31 00:35:13;;;;;;;10.55;6.68;;;;;;;3.38;100.00;95566.41;5070742;28;20123;-64
2021/12/31 00:37:40;;;;;;;13.43;5.90;;;;;;;3.32;100.00;95560.16;5073627;28;20048;-62
2021/12/31 00:40:10;;;;;;;8.80;5.65;;;;;;;3.34;100.00;95578.03;5073170;28;20048;-63
2021/12/31 00:42:37;;;;;;;11.45;4.97;;;;;;;3.34;100.00;95583.19;5075163;28;20052;-63
2021/12/31 00:45:06;;;;;;;11.65;6.35;;;;;;;3.32;100.00;95579.97;5075440;28;20584;-61
2021/12/31 00:47:33;;;;;;;10.95;6.13;;;;;;;3.21;100.00;95579.34;5070126;28;20055;-63
2021/12/31 00:50:00;;;;;;;13.55;5.32;;;;;;;3.16;100.00;95576.47;5072460;28;20059;-62
2021/12/31 00:52:27;;;;;;;10.52;6.00;;;;;;;3.08;100.00;95568.78;5076886;28;20085;-62
2021/12/31 00:54:54;;;;;;;14.13;7.13;;;;;;;3.09;100.00;95570.38;5072255;28;20513;-63
2021/12/31 00:57:21;;;;;;;15.25;7.15;;;;;;;3.09;100.00;95564.44;5071246;28;20041;-63
2021/12/31 00:59:48;;;;;;;12.10;6.20;;;;;;;3.02;100.00;95554.00;5071116;28;20050;-62
2021/12/31 01:02:16;;;;;;;14.68;7.53;;;;;;;2.94;100.00;95548.88;5075481;28;20040;-63
2021/12/31 01:04:43;;;;;;;13.93;7.40;;;;;;;2.87;100.00;95554.69;5075172;28;20106;-63
2021/12/31 01:07:10;;;;;;;12.77;6.22;;;;;;;2.88;100.00;95552.91;5073804;28;20128;-64
2021/12/31 01:09:37;;;;;;;15.13;7.15;;;;;;;2.84;100.00;95562.72;5072787;28;20036;-62
2021/12/31 01:12:07;;;;;;;16.63;8.07;;;;;;;2.65;100.00;95522.75;5075281;28;20052;-63
2021/12/31 01:14:37;;;;;;;13.20;6.93;;;;;;;2.82;100.00;95545.84;5065581;28;20051;-61
2021/12/31 01:17:08;;;;;;;14.05;6.10;;;;;;;2.83;100.00;95543.13;5073832;28;20045;-63
2021/12/31 01:19:46;;;;;;;13.65;7.00;;;;;;;2.85;100.00;95543.75;5068132;28;20048;-62
2021/12/31 01:22:18;;;;;;;11.48;6.05;;;;;;;2.83;100.00;95537.97;5080942;28;20040;-62
2021/12/31 01:24:46;;;;;;;11.45;6.07;;;;;;;2.89;100.00;95544.22;5075686;28;20040;-62
2021/12/31 01:27:13;;;;;;;9.07;5.32;;;;;;;2.93;100.00;95555.00;5077412;28;20053;-62
2021/12/31 01:29:41;;;;;;;14.18;5.15;;;;;;;2.95;100.00;95564.13;5070967;28;20040;-65
2021/12/31 01:32:09;;;;;;;14.20;5.82;;;;;;;2.96;100.00;95562.38;5067510;28;20075;-62
2021/12/31 01:34:37;;;;;;;13.00;5.95;;;;;;;2.96;100.00;95564.97;5075778;28;20047;-61
2021/12/31 01:37:05;;;;;;;8.68;5.07;;;;;;;3.02;100.00;95572.00;5067779;28;20049;-65
2021/12/31 01:39:33;;;;;;;9.73;4.68;;;;;;;3.04;100.00;95564.91;5064609;28;20052;-65
2021/12/31 01:42:02;;;;;;;7.53;4.57;;;;;;;3.14;100.00;95568.13;5073947;28;20041;-62
2021/12/31 01:44:46;;;;;;;9.50;4.97;;;;;;;3.18;100.00;95566.00;5068331;28;20469;-63
2021/12/31 01:47:15;;;;;;;8.05;4.13;;;;;;;3.26;100.00;95566.00;5078143;28;20777;-62
2021/12/31 01:49:55;;;;;;;8.10;4.03;;;;;;;3.27;100.00;95574.50;5069514;28;20417;-63
2021/12/31 01:52:22;;;;;;;9.25;5.20;;;;;;;3.33;100.00;95571.25;5068590;28;20040;-63
2021/12/31 01:54:50;;;;;;;25.27;11.75;;;;;;;3.31;100.00;95575.78;5076381;28;20040;-63
2021/12/31 01:57:18;;;;;;;8.25;5.18;;;;;;;3.36;100.00;95591.53;5076564;28;20517;-61
2021/12/31 01:59:45;;;;;;;8.93;4.88;;;;;;;3.25;100.00;95590.91;5072130;28;20044;-63
2021/12/31 02:02:13;;;;;;;10.35;4.75;;;;;;;3.27;100.00;95585.59;5074573;28;20467;-64
2021/12/31 02:04:41;;;;;;;8.80;4.57;;;;;;;3.17;100.00;95593.53;5071059;28;20040;-61
2021/12/31 02:07:09;;;;;;;7.97;4.72;;;;;;;3.13;100.00;95597.38;5073467;28;20048;-63
2021/12/31 02:09:46;;;;;;;7.55;4.63;;;;;;;3.13;100.00;95601.75;5067388;28;20461;-63
2021/12/31 02:12:13;;;;;;;38.20;15.60;;;;;;;3.06;100.00;95588.72;5063627;28;20057;-63
2021/12/31 02:14:40;;;;;;;13.20;7.40;;;;;;;2.92;100.00;95586.81;5063615;28;20505;-63
2021/12/31 02:17:09;;;;;;;15.10;7.35;;;;;;;2.92;100.00;95595.38;5065194;28;20048;-64
2021/12/31 02:19:38;;;;;;;11.10;6.05;;;;;;;2.96;100.00;95601.78;5068744;28;20415;-63
2021/12/31 02:22:05;;;;;;;13.18;6.50;;;;;;;3.02;100.00;95595.16;5074532;28;20036;-63
2021/12/31 02:24:33;;;;;;;10.48;5.82;;;;;;;3.01;100.00;95603.88;5073205;28;20071;-62
2021/12/31 02:27:00;;;;;;;15.07;6.05;;;;;;;2.95;100.00;95601.94;5074685;28;20040;-63
2021/12/31 02:29:27;;;;;;;7.32;4.85;;;;;;;2.97;100.00;95592.28;5073009;28;20052;-63
2021/12/31 02:31:54;;;;;;;9.07;4.60;;;;;;;2.94;100.00;95608.06;5075307;28;20040;-63
2021/12/31 02:34:21;;;;;;;10.68;4.93;;;;;;;2.92;100.00;95595.38;5074049;28;20463;-62
2021/12/31 02:36:50;;;;;;;8.68;4.80;;;;;;;2.89;100.00;95574.31;5073497;28;20102;-62
2021/12/31 02:39:17;;;;;;;9.07;5.10;;;;;;;2.97;100.00;95592.28;5073820;28;20040;-62
2021/12/31 02:41:44;;;;;;;12.80;7.00;;;;;;;2.81;100.00;95599.09;5074244;28;20534;-63
2021/12/31 02:44:11;;;;;;;12.68;6.75;;;;;;;2.82;100.00;95590.38;5068746;28;20413;-62
2021/12/31 02:46:38;;;;;;;13.65;5.95;;;;;;;2.76;100.00;95593.63;5073953;28;20044;-62
2021/12/31 02:49:05;;;;;;;12.00;6.30;;;;;;;2.85;100.00;95605.50;5071306;28;20048;-63
2021/12/31 02:51:32;;;;;;;10.60;6.25;;;;;;;2.87;100.00;95613.84;5073906;28;20032;-61
2021/12/31 02:54:05;;;;;;;12.30;6.47;;;;;;;2.93;100.00;95621.88;5074472;28;20052;-62
2021/12/31 02:56:32;;;;;;;11.57;5.65;;;;;;;2.94;100.00;95620.94;5071388;28;20042;-62
2021/12/31 02:59:00;;;;;;;15.93;5.55;;;;;;;2.97;100.00;95633.47;5073360;28;20049;-62
2021/12/31 03:01:27;;;;;;;11.50;5.63;;;;;;;2.99;100.00;95627.19;5070287;28;20493;-63
2021/12/31 03:03:55;;;;;;;11.77;6.35;;;;;;;2.97;100.00;95628.31;5071482;28;20043;-63
2021/12/31 03:06:23;;;;;;;11.40;5.97;;;;;;;2.94;100.00;95624.31;5071489;28;20032;-62
2021/12/31 03:08:54;;;;;;;8.00;4.82;;;;;;;3.02;100.00;95623.47;5075444;28;20044;-62
2021/12/31 03:11:22;;;;;;;8.98;4.68;;;;;;;2.99;100.00;95618.66;5070552;28;20135;-62
2021/12/31 03:13:52;;;;;;;11.48;5.63;;;;;;;3.05;100.00;95630.88;5072240;28;20142;-62
2021/12/31 03:16:21;;;;;;;11.65;5.60;;;;;;;3.05;100.00;95636.81;5065740;28;20525;-62
2021/12/31 03:18:52;;;;;;;9.15;5.38;;;;;;;3.09;100.00;95637.31;5066594;28;20775;-62
2021/12/31 03:21:22;;;;;;;10.15;5.07;;;;;;;3.08;100.00;95635.72;5071410;28;20502;-62
2021/12/31 03:23:52;;;;;;;12.55;5.97;;;;;;;3.09;100.00;95637.31;5071450;28;20041;-62
2021/12/31 03:26:20;;;;;;;11.30;5.18;;;;;;;3.05;100.00;95641.97;5072408;28;20048;-62
2021/12/31 03:28:48;;;;;;;10.35;5.28;;;;;;;3.06;100.00;95642.75;5072481;28;22017;-62
2021/12/31 03:31:15;;;;;;;12.73;5.20;;;;;;;3.05;100.00;95641.97;5076899;28;20050;-62
2021/12/31 03:33:42;;;;;;;11.32;5.22;;;;;;;3.06;100.00;95642.75;5073040;28;20048;-62
2021/12/31 03:36:09;;;;;;;9.77;5.50;;;;;;;3.12;100.00;95651.63;5074343;28;20047;-63
2021/12/31 03:38:36;;;;;;;14.43;6.28;;;;;;;3.19;100.00;95652.56;5069626;28;20059;-63
2021/12/31 03:41:02;;;;;;;10.25;5.57;;;;;;;3.22;100.00;95645.34;5072549;28;20460;-62
2021/12/31 03:43:30;;;;;;;11.13;5.32;;;;;;;3.30;100.00;95654.00;5067065;28;20511;-63
2021/12/31 03:45:57;;;;;;;14.00;6.32;;;;;;;3.27;100.00;95654.31;5074730;28;20033;-63
2021/12/31 03:48:24;;;;;;;14.73;5.70;;;;;;;3.23;100.00;95649.50;5078069;28;20579;-62
2021/12/31 03:50:51;;;;;;;10.02;5.93;;;;;;;3.28;100.00;95661.88;5074731;28;20036;-62
2021/12/31 03:53:19;;;;;;;9.65;5.05;;;;;;;3.28;100.00;95661.06;5079279;28;20039;-62
2021/12/31 03:55:47;;;;;;;8.80;4.20;;;;;;;3.25;100.00;95663.00;5073701;28;20106;-62
2021/12/31 03:58:14;;;;;;;8.55;4.95;;;;;;;3.25;100.00;95667.34;5079582;28;20040;-62
2021/12/31 04:00:41;;;;;;;7.90;4.07;;;;;;;3.18;100.00;95662.06;5075755;28;20384;-62
2021/12/31 04:03:10;;;;;;;9.40;5.22;;;;;;;3.22;100.00;95658.19;5075387;28;20048;-62
2021/12/31 04:05:40;;;;;;;11.32;5.38;;;;;;;3.23;100.00;95644.34;5067967;28;20056;-62
2021/12/31 04:08:09;;;;;;;10.80;5.97;;;;;;;3.22;100.00;95642.75;5075755;28;20044;-62
2021/12/31 04:10:37;;;;;;;9.75;5.68;;;;;;;3.18;100.00;95650.97;5082428;28;20059;-62
2021/12/31 04:13:04;;;;;;;10.05;5.07;;;;;;;3.22;100.00;95653.06;5074953;28;20044;-63
2021/12/31 04:15:30;;;;;;;13.82;6.07;;;;;;;3.27;100.00;95656.91;5077685;28;20425;-63
2021/12/31 04:17:57;;;;;;;10.30;5.32;;;;;;;3.14;100.00;95655.63;5078401;28;20506;-62
2021/12/31 04:20:34;;;;;;;11.07;5.78;;;;;;;3.18;100.00;95662.06;5071500;28;20048;-62
2021/12/31 04:23:03;;;;;;;13.77;5.72;;;;;;;3.18;100.00;95661.25;5078510;28;20047;-62
2021/12/31 04:25:30;;;;;;;10.98;4.25;;;;;;;3.15;100.00;95672.69;5081265;28;20066;-62
2021/12/31 04:27:57;;;;;;;13.93;6.03;;;;;;;3.08;100.00;95666.59;5074316;28;20040;-63
2021/12/31 04:30:24;;;;;;;14.25;6.65;;;;;;;3.10;100.00;95671.56;5073439;28;20048;-62
2021/12/31 04:32:51;;;;;;;9.38;4.90;;;;;;;3.12;100.00;95673.00;5074475;28;20046;-62
2021/12/31 04:35:18;;;;;;;12.20;5.25;;;;;;;3.10;100.00;95664.66;5075932;28;20044;-62
2021/12/31 04:37:46;;;;;;;13.02;6.30;;;;;;;3.09;100.00;95657.88;5077977;28;20443;-62
2021/12/31 04:40:14;;;;;;;13.93;5.60;;;;;;;3.06;100.00;95648.75;5072256;28;20059;-62
2021/12/31 04:42:44;;;;;;;12.82;6.20;;;;;;;3.03;100.00;95655.97;5075146;28;20040;-62
2021/12/31 04:45:12;;;;;;;11.63;5.15;;;;;;;3.02;100.00;95662.09;5077274;28;20041;-62
2021/12/31 04:47:40;;;;;;;15.52;8.55;;;;;;;2.99;100.00;95677.84;5078965;28;20375;-62
2021/12/31 04:50:07;;;;;;;12.10;7.75;;;;;;;2.99;100.00;95680.41;5078576;28;20040;-62
2021/12/31 04:52:35;;;;;;;13.10;6.22;;;;;;;2.90;100.00;95681.38;5079478;28;20122;-62
2021/12/31 04:55:02;;;;;;;10.27;5.45;;;;;;;2.92;100.00;95684.59;5074350;28;20036;-62
2021/12/31 04:57:29;;;;;;;10.40;4.82;;;;;;;2.89;100.00;95687.53;5074463;28;20056;-62
2021/12/31 04:59:56;;;;;;;12.45;6.53;;;;;;;2.84;100.00;95670.78;5069932;28;20505;-62
2021/12/31 05:02:23;;;;;;;14.25;6.05;;;;;;;2.89;100.00;95682.38;5073088;28;20387;-62
2021/12/31 05:04:50;;;;;;;7.45;3.97;;;;;;;2.87;100.00;95685.09;5073660;28;20036;-62
2021/12/31 05:07:16;;;;;;;8.50;5.25;;;;;;;2.87;100.00;95680.75;5072262;28;20049;-62
2021/12/31 05:09:43;;;;;;;10.60;5.55;;;;;;;2.85;100.00;95680.13;5071766;28;20044;-62
2021/12/31 05:12:15;;;;;;;8.30;4.88;;;;;;;2.91;100.00;95683.00;5069343;28;20054;-62
2021/12/31 05:14:42;;;;;;;8.98;5.35;;;;;;;2.84;100.00;95686.22;5071965;28;20048;-61
2021/12/31 05:17:09;;;;;;;13.25;6.65;;;;;;;2.89;100.00;95692.66;5072137;28;20057;-62
2021/12/31 05:19:36;;;;;;;11.50;5.25;;;;;;;2.87;100.00;95691.03;5069888;28;20047;-62
2021/12/31 05:22:03;;;;;;;17.52;6.65;;;;;;;2.80;100.00;95684.94;5069655;28;20048;-61
2021/12/31 05:24:30;;;;;;;9.75;5.32;;;;;;;2.84;100.00;95690.56;5074112;28;20613;-62
2021/12/31 05:26:57;;;;;;;18.60;8.88;;;;;;;2.81;100.00;95686.56;5072579;28;20040;-62
2021/12/31 05:29:24;;;;;;;16.83;7.63;;;;;;;2.89;100.00;95690.09;5077424;28;20178;-62
2021/12/31 05:31:51;;;;;;;12.57;6.20;;;;;;;2.86;100.00;95679.16;5072902;28;20032;-62
2021/12/31 05:34:17;;;;;;;11.40;6.15;;;;;;;2.87;100.00;95690.25;5072290;28;20046;-63
2021/12/31 05:36:44;;;;;;;22.90;7.00;;;;;;;2.93;100.00;95688.78;5075014;28;20050;-63
2021/12/31 05:39:13;;;;;;;13.90;6.90;;;;;;;2.92;100.00;95684.59;5073837;28;20493;-62
2021/12/31 05:41:40;;;;;;;9.70;5.40;;;;;;;2.90;100.00;95694.25;5073698;28;20520;-62
2021/12/31 05:44:07;;;;;;;12.43;6.18;;;;;;;2.87;100.00;95685.91;5075289;28;20044;-62
2021/12/31 05:46:35;;;;;;;10.35;6.53;;;;;;;2.83;100.00;95679.47;5078257;28;20548;-62
2021/12/31 05:49:04;;;;;;;17.20;8.30;;;;;;;2.84;100.00;95682.84;5073454;28;20044;-62
2021/12/31 05:51:31;;;;;;;46.35;17.02;;;;;;;2.89;100.00;95687.53;5075294;28;20119;-62
2021/12/31 05:53:58;;;;;;;34.53;12.27;;;;;;;2.90;100.00;95695.09;5073196;28;20418;-62
2021/12/31 05:56:25;;;;;;;24.23;10.05;;;;;;;2.86;100.00;95689.47;5071598;28;20052;-62
2021/12/31 05:58:52;;;;;;;31.63;9.60;;;;;;;2.89;100.00;95697.81;5068709;28;20510;-62
2021/12/31 06:01:19;;;;;;;25.45;10.90;;;;;;;2.85;100.00;95703.28;5079533;28;20769;-62
2021/12/31 06:03:46;;;;;;;15.88;8.40;;;;;;;2.90;100.00;95699.41;5075662;28;20044;-62
2021/12/31 06:06:13;;;;;;;21.20;7.93;;;;;;;2.94;100.00;95708.44;5067852;28;20508;-62
2021/12/31 06:08:40;;;;;;;12.82;7.03;;;;;;;2.87;100.00;95705.69;5072273;28;20412;-62
2021/12/31 06:11:09;;;;;;;12.85;6.78;;;;;;;2.79;100.00;95714.22;5076160;28;20048;-63
2021/12/31 06:13:38;;;;;;;17.85;8.93;;;;;;;2.80;100.00;95720.16;5075493;28;20490;-62
2021/12/31 06:16:06;;;;;;;10.32;5.60;;;;;;;2.84;100.00;95724.00;5075133;28;20048;-62
2021/12/31 06:18:33;;;;;;;12.38;6.00;;;;;;;2.81;100.00;95714.84;5069010;28;20068;-62
2021/12/31 06:21:01;;;;;;;14.20;6.95;;;;;;;2.81;100.00;95712.28;5069315;28;20045;-61
2021/12/31 06:23:28;;;;;;;20.90;9.10;;;;;;;2.86;100.00;95720.34;5073312;28;20047;-62
2021/12/31 06:25:55;;;;;;;17.50;7.78;;;;;;;2.90;100.00;95720.00;5073271;28;20083;-62
2021/12/31 06:28:22;;;;;;;14.98;6.60;;;;;;;2.92;100.00;95718.88;5075363;28;20055;-62
2021/12/31 06:30:48;;;;;;;27.25;13.93;;;;;;;2.98;100.00;95718.22;5070203;28;20049;-62
2021/12/31 06:33:15;;;;;;;27.10;10.88;;;;;;;3.07;100.00;95726.75;5070926;28;20033;-63
2021/12/31 06:35:42;;;;;;;17.50;8.00;;;;;;;3.06;100.00;95722.56;5074891;28;20039;-61
2021/12/31 06:38:09;;;;;;;20.65;10.65;;;;;;;3.07;100.00;95719.03;5075927;28;20044;-62
2021/12/31 06:40:36;;;;;;;21.63;8.80;;;;;;;3.12;100.00;95729.66;5071113;28;20040;-63
2021/12/31 06:43:03;;;;;;;13.80;7.00;;;;;;;3.11;100.00;95743.47;5073881;28;20047;-62
2021/12/31 06:45:30;;;;;;;22.15;11.18;;;;;;;3.10;100.00;95744.44;5072607;28;20040;-62
2021/12/31 06:47:57;;;;;;;19.98;10.05;;;;;;;3.06;100.00;95740.56;5074244;28;20040;-62
2021/12/31 06:50:28;;;;;;;21.50;11.73;;;;;;;3.13;100.00;95746.69;5073646;28;20044;-62
2021/12/31 06:52:55;;;;;;;18.15;10.48;;;;;;;3.12;100.00;95737.38;5073236;28;20047;-62
2021/12/31 06:55:22;;;;;;;10.60;4.43;;;;;;;3.12;100.00;95745.09;5072315;28;20514;-62
2021/12/31 06:57:50;;;;;;;11.27;5.80;;;;;;;3.14;100.00;95738.00;5074633;28;20042;-62
2021/12/31 07:00:17;;;;;;;7.85;4.50;;;;;;;3.23;100.00;95742.19;5067498;28;20048;-63
2021/12/31 07:02:44;;;;;;;9.70;4.57;;;;;;;3.29;100.00;95747.66;5075092;28;20044;-62
2021/12/31 07:05:11;;;;;;;12.95;6.32;;;;;;;3.41;100.00;95754.06;5075498;28;20050;-62
2021/12/31 07:07:38;;;;;;;24.55;9.43;;;;;;;3.46;100.00;95756.97;5072971;28;20498;-62
2021/12/31 07:10:06;;;;;;;22.88;9.85;;;;;;;3.59;100.00;95757.25;5069701;28;20253;-62
2021/12/31 07:12:33;;;;;;;18.25;6.80;;;;;;;3.68;100.00;95754.69;5070062;28;20422;-62
2021/12/31 07:15:00;;;;;;;16.20;7.65;;;;;;;3.67;100.00;95747.91;5071378;28;20040;-62
2021/12/31 07:17:29;;;;;;;11.98;5.38;;;;;;;3.77;100.00;95749.31;5074054;28;20128;-62
2021/12/31 07:19:57;;;;;;;15.18;7.88;;;;;;;3.76;100.00;95752.06;5071533;28;20044;-61
2021/12/31 07:22:24;;;;;;;14.23;8.02;;;;;;;3.79;100.00;95749.16;5072133;28;20036;-62
2021/12/31 07:24:51;;;;;;;14.57;6.57;;;;;;;3.85;100.00;95742.53;5075751;28;20048;-62
2021/12/31 07:27:17;;;;;;;33.88;13.10;;;;;;;3.86;100.00;95747.53;5074403;28;20044;-62
2021/12/31 07:29:44;;;;;;;21.45;8.45;;;;;;;3.90;100.00;95746.22;5076025;28;20131;-62
2021/12/31 07:32:11;;;;;;;24.25;9.85;;;;;;;3.91;100.00;95750.41;5075037;28;20036;-62
2021/12/31 07:34:38;;;;;;;21.50;10.52;;;;;;;3.92;100.00;95752.00;5072809;28;20067;-62
2021/12/31 07:37:05;;;;;;;17.90;8.98;;;;;;;3.85;100.00;95737.38;5071912;28;20040;-63
2021/12/31 07:39:34;;;;;;;9.93;4.97;;;;;;;3.91;100.00;95753.00;5074633;28;20501;-63
2021/12/31 07:42:01;;;;;;;7.95;5.28;;;;;;;3.90;100.00;95756.53;5073797;28;20533;-62
2021/12/31 07:44:33;;;;;;;8.93;5.28;;;;;;;3.76;100.00;95755.47;5071353;28;20571;-62
2021/12/31 07:47:00;;;;;;;13.73;7.00;;;;;;;3.85;100.00;95751.06;5072144;28;20047;-62
2021/12/31 07:49:27;;;;;;;13.88;8.30;;;;;;;3.91;100.00;95750.41;5074742;28;20532;-62
2021/12/31 07:51:54;;;;;;;12.38;5.60;;;;;;;3.96;100.00;95747.31;5071358;28;20041;-63
2021/12/31 07:54:20;;;;;;;22.95;10.73;;;;;;;4.04;100.00;95749.09;5068306;28;20048;-62
2021/12/31 07:56:48;;;;;;;18.00;8.40;;;;;;;4.12;100.00;95746.47;5071243;28;20051;-63
2021/12/31 07:59:15;;;;;;;69.10;23.35;;;;;;;4.17;100.00;95755.28;5067338;28;20066;-62
2021/12/31 08:01:42;;;;;;;104.00;30.10;;;;;;;4.16;100.00;95764.00;5070494;28;20040;-63
2021/12/31 08:04:09;;;;;;;63.95;24.02;;;;;;;4.26;100.00;95758.63;5075461;28;20478;-62
2021/12/31 08:06:36;;;;;;;182.30;49.55;;;;;;;4.32;100.00;95752.81;5074490;28;20055;-62
2021/12/31 08:09:02;;;;;;;69.18;23.92;;;;;;;4.38;100.00;95757.31;5075239;28;20040;-62
2021/12/31 08:11:29;;;;;;;64.43;21.90;;;;;;;4.38;100.00;95765.03;5068754;28;20421;-62
2021/12/31 08:13:56;;;;;;;24.83;10.05;;;;;;;4.39;100.00;95764.06;5075747;28;20040;-62
2021/12/31 08:16:23;;;;;;;18.95;9.75;;;;;;;4.37;100.00;95768.56;5067680;28;20391;-62
2021/12/31 08:18:50;;;;;;;24.75;13.20;;;;;;;4.42;100.00;95762.13;5074203;28;20040;-62
2021/12/31 08:21:17;;;;;;;11.68;6.40;;;;;;;4.40;100.00;95760.50;5070037;28;20119;-62
2021/12/31 08:23:44;;;;;;;11.63;6.15;;;;;;;4.35;100.00;95757.63;5073665;28;20482;-62
2021/12/31 08:26:11;;;;;;;23.92;9.35;;;;;;;4.40;100.00;95765.66;5071493;28;20040;-62
2021/12/31 08:28:38;;;;;;;18.40;10.00;;;;;;;4.48;100.00;95766.59;5071830;28;20040;-62
2021/12/31 08:31:05;;;;;;;50.90;26.17;;;;;;;4.54;100.00;95763.34;5074271;28;20047;-62
2021/12/31 08:33:31;;;;;;;55.22;30.42;;;;;;;4.48;100.00;95761.44;5074243;28;20039;-62
2021/12/31 08:35:58;;;;;;;40.42;14.52;;;;;;;4.63;100.00;95749.44;5074547;28;20040;-62
2021/12/31 08:38:25;;;;;;;7.82;5.15;;;;;;;4.66;100.00;95748.28;5078967;28;20044;-62
2021/12/31 08:40:54;;;;;;;9.98;5.43;;;;;;;4.57;100.00;95744.94;5081275;28;20051;-62
2021/12/31 08:43:23;;;;;;;11.30;5.97;;;;;;;4.57;100.00;95750.09;5078458;28;20068;-62
2021/12/31 08:45:50;;;;;;;17.48;7.50;;;;;;;4.61;100.00;95730.75;5075701;28;20048;-63
2021/12/31 08:48:17;;;;;;;7.53;4.25;;;;;;;4.65;100.00;95732.00;5071920;28;20048;-63
2021/12/31 08:50:44;;;;;;;13.30;5.90;;;;;;;4.75;100.00;95742.91;5074512;28;20036;-60
2021/12/31 08:53:12;;;;;;;8.75;4.95;;;;;;;4.85;100.00;95741.88;5072860;28;20040;-63
2021/12/31 08:55:39;;;;;;;12.82;5.60;;;;;;;4.78;100.00;95721.88;5070204;28;20516;-62
2021/12/31 08:58:06;;;;;;;9.00;4.43;;;;;;;5.02;100.00;95727.84;5071322;28;20075;-62
2021/12/31 09:00:33;;;;;;;12.52;5.25;;;;;;;5.02;100.00;95727.84;5074679;28;20040;-62
2021/12/31 09:02:59;;;;;;;9.48;5.28;;;;;;;5.12;100.00;95728.41;5077164;28;20032;-62
2021/12/31 09:05:27;;;;;;;9.68;6.30;;;;;;;5.26;100.00;95723.47;5073892;28;20051;-62
2021/12/31 09:07:55;;;;;;;8.82;4.63;;;;;;;5.34;99.60;95726.75;5075170;28;20490;-62
2021/12/31 09:10:22;;;;;;;9.00;4.78;;;;;;;5.32;98.88;95722.75;5073457;28;20131;-62
2021/12/31 09:12:50;;;;;;;15.57;5.20;;;;;;;5.29;98.54;95712.75;5073539;28;20449;-62
2021/12/31 09:15:17;;;;;;;7.88;4.20;;;;;;;5.40;98.68;95714.91;5076525;28;20046;-61
2021/12/31 09:17:45;;;;;;;7.75;4.70;;;;;;;5.53;98.73;95720.28;5071230;28;20056;-62
2021/12/31 09:20:13;;;;;;;12.75;7.00;;;;;;;5.67;98.29;95718.69;5070387;28;20040;-62
2021/12/31 09:22:39;;;;;;;14.02;6.72;;;;;;;5.73;98.09;95717.97;5075565;28;20494;-62
2021/12/31 09:25:07;;;;;;;6.85;3.67;;;;;;;5.76;97.56;95719.38;5072008;28;20516;-62
2021/12/31 09:27:34;;;;;;;6.78;4.43;;;;;;;5.73;97.36;95714.59;5073469;28;20059;-62
2021/12/31 09:30:00;;;;;;;8.48;5.10;;;;;;;5.92;97.69;95718.41;5076234;28;20513;-62
2021/12/31 09:32:27;;;;;;;11.75;7.13;;;;;;;5.93;97.77;95720.81;5081424;28;20051;-62
2021/12/31 09:34:54;;;;;;;9.02;4.63;;;;;;;5.92;97.61;95719.22;5076287;28;20547;-62
2021/12/31 09:37:21;;;;;;;9.50;4.25;;;;;;;5.96;97.00;95708.53;5072952;28;20064;-62
2021/12/31 09:39:48;;;;;;;11.23;6.20;;;;;;;5.89;97.20;95709.22;5076077;28;20044;-62
2021/12/31 09:42:15;;;;;;;7.22;3.97;;;;;;;5.91;97.25;95712.44;5079023;28;20048;-62
2021/12/31 09:44:47;;;;;;;8.20;4.15;;;;;;;5.81;97.58;95711.09;5072133;28;20068;-62
2021/12/31 09:47:15;;;;;;;6.93;4.22;;;;;;;5.80;98.91;95699.97;5071391;28;20060;-62
2021/12/31 09:49:43;;;;;;;9.57;4.70;;;;;;;5.74;97.97;95698.09;5079519;28;20046;-62
2021/12/31 09:52:11;;;;;;;4.85;2.75;;;;;;;5.89;98.20;95700.69;5078908;28;20044;-62
2021/12/31 09:54:47;;;;;;;6.88;3.60;;;;;;;6.09;98.69;95698.38;5075357;28;20045;-62
2021/12/31 09:57:19;;;;;;;5.32;3.72;;;;;;;6.17;97.86;95685.31;5077594;28;20050;-62
2021/12/31 09:59:47;;;;;;;11.13;5.00;;;;;;;6.30;98.75;95675.13;5080080;28;20127;-62
2021/12/31 10:02:15;;;;;;;6.43;3.13;;;;;;;6.44;96.87;95686.38;5079304;28;20454;-62
2021/12/31 10:04:59;;;;;;;6.93;3.97;;;;;;;6.55;97.19;95677.34;5073171;28;20041;-62
2021/12/31 10:07:29;;;;;;;6.82;3.25;;;;;;;6.57;96.43;95675.41;5079215;28;20040;-62
2021/12/31 10:10:14;;;;;;;11.05;5.22;;;;;;;6.66;97.31;95674.28;5074308;28;20044;-62
2021/12/31 10:12:51;;;;;;;7.70;4.35;;;;;;;6.76;96.87;95675.75;5076042;28;20054;-62
2021/12/31 10:15:22;;;;;;;6.18;3.85;;;;;;;6.77;96.08;95669.56;5076666;28;20056;-62
2021/12/31 10:17:49;;;;;;;12.05;5.93;;;;;;;6.77;96.65;95654.84;5077195;28;20393;-62
2021/12/31 10:20:17;;;;;;;8.07;5.07;;;;;;;6.88;95.14;95661.31;5068785;28;20135;-62
2021/12/31 10:22:45;;;;;;;12.82;5.75;;;;;;;6.84;95.77;95660.06;5076494;28;20052;-62
2021/12/31 10:25:24;;;;;;;8.48;4.85;;;;;;;6.92;96.33;95662.53;5075945;28;20057;-62
2021/12/31 10:28:07;;;;;;;5.85;4.13;;;;;;;6.98;95.74;95661.78;5069530;28;20468;-62
2021/12/31 10:30:33;;;;;;;5.05;2.88;;;;;;;7.03;94.56;95658.63;5074921;28;20044;-62
2021/12/31 10:33:00;;;;;;;9.55;4.30;;;;;;;7.13;94.26;95647.94;5074185;28;20051;-62
2021/12/31 10:35:41;;;;;;;6.25;4.15;;;;;;;7.19;93.98;95631.66;5080324;28;20052;-62
2021/12/31 10:38:11;;;;;;;10.02;5.80;;;;;;;7.33;93.86;95643.69;5080569;28;20045;-61
2021/12/31 10:40:41;;;;;;;5.63;3.58;;;;;;;7.35;93.05;95633.94;5072471;28;21885;-62
2021/12/31 10:43:11;;;;;;;5.95;3.17;;;;;;;7.37;93.18;95634.53;5076522;28;20398;-62
2021/12/31 10:45:39;;;;;;;6.30;3.50;;;;;;;7.58;92.57;95640.63;5080743;28;20043;-62
2021/12/31 10:48:08;;;;;;;13.18;7.20;;;;;;;7.67;92.75;95629.13;5071853;28;20430;-62
2021/12/31 10:50:37;;;;;;;11.77;5.70;;;;;;;7.80;91.66;95633.56;5076369;28;20036;-62
2021/12/31 10:53:11;;;;;;;8.65;4.30;;;;;;;7.72;91.82;95626.72;5074860;28;20403;-62
2021/12/31 10:55:40;;;;;;;11.38;5.25;;;;;;;7.83;92.06;95625.38;5068014;28;20052;-62
2021/12/31 10:58:14;;;;;;;11.10;5.65;;;;;;;7.97;91.67;95628.81;5074183;28;20056;-62
2021/12/31 11:00:43;;;;;;;6.88;4.50;;;;;;;7.88;91.09;95635.97;5067009;28;20045;-62
2021/12/31 11:03:11;;;;;;;10.68;4.82;;;;;;;7.88;91.37;95630.00;5073550;28;21020;-62
2021/12/31 11:05:38;;;;;;;12.10;4.88;;;;;;;7.74;91.68;95629.97;5071682;28;20076;-62
2021/12/31 11:08:13;;;;;;;7.63;3.55;;;;;;;7.82;91.80;95616.81;5076588;28;20056;-62
2021/12/31 11:10:40;;;;;;;5.90;2.85;;;;;;;7.75;91.11;95631.53;5075459;28;20045;-62
2021/12/31 11:13:14;;;;;;;4.10;2.58;;;;;;;7.69;92.55;95637.50;5067371;28;20044;-62
2021/12/31 11:15:43;;;;;;;;;;;;;;;7.73;91.83;95628.34;5072367;28;20059;-62
2021/12/31 11:18:12;;;;;;;8.70;4.00;;;;;;;7.74;92.01;95629.97;5071198;28;20300;-61
2021/12/31 11:20:41;;;;;;;9.93;5.82;;;;;;;7.75;92.44;95615.97;5072476;28;20457;-62
2021/12/31 11:23:08;;;;;;;11.30;5.47;;;;;;;7.95;93.30;95615.25;5071191;28;20043;-62
2021/12/31 11:25:55;;;;;;;11.55;5.63;;;;;;;8.13;92.41;95623.28;5076381;28;20523;-62
2021/12/31 11:28:30;;;;;;;13.45;7.85;;;;;;;8.15;91.57;95620.50;5070525;28;20044;-62
2021/12/31 11:31:20;;;;;;;8.82;4.80;;;;;;;7.96;90.97;95612.47;5072454;28;20051;-62
2021/12/31 11:34:11;;;;;;;10.80;5.45;;;;;;;8.12;92.17;95621.72;5073620;28;20075;-62
2021/12/31 11:36:52;;;;;;;10.45;5.75;;;;;;;8.41;91.06;95614.56;5075839;28;20444;-62